createdAt,value
2022-11-19T00:04:28.135Z,-4.60
2022-11-19T00:09:33.333Z,-4.60
2022-11-19T00:14:38.348Z,-4.60
2022-11-19T00:19:43.814Z,-4.60
2022-11-19T00:24:48.961Z,-4.70
2022-11-19T00:29:54.549Z,-4.80
2022-11-19T00:34:59.680Z,-4.90
2022-11-19T00:40:05.864Z,-5.00
2022-11-19T00:45:11.461Z,-5.10
2022-11-19T00:50:16.717Z,-5.10
2022-11-19T00:55:22.024Z,-5.20
2022-11-19T01:00:27.143Z,-5.20
2022-11-19T01:05:32.442Z,-5.20
2022-11-19T01:10:37.524Z,-5.20
2022-11-19T01:15:42.659Z,-5.30
2022-11-19T01:20:48.043Z,-5.40
2022-11-19T01:25:53.247Z,-5.40
2022-11-19T01:30:58.483Z,-5.40
2022-11-19T01:36:06.972Z,-5.50
2022-11-19T01:41:12.192Z,-5.50
2022-11-19T01:46:20.279Z,-5.50
2022-11-19T01:51:40.413Z,-5.60
2022-11-19T01:56:46.281Z,-5.70
2022-11-19T02:01:51.574Z,-5.60
2022-11-19T02:06:58.205Z,-5.60
2022-11-19T02:12:15.313Z,-5.70
2022-11-19T02:17:29.014Z,-5.60
2022-11-19T02:22:54.616Z,-5.70
2022-11-19T02:28:25.117Z,-5.70
2022-11-19T02:33:36.508Z,-5.70
2022-11-19T02:38:44.640Z,-5.60
2022-11-19T02:43:54.503Z,-5.60
2022-11-19T02:49:00.515Z,-5.40
2022-11-19T02:54:06.587Z,-5.30
2022-11-19T02:59:20.057Z,-5.20
2022-11-19T03:04:30.200Z,-5.00
2022-11-19T03:09:38.323Z,-4.90
2022-11-19T03:14:50.869Z,-4.70
2022-11-19T03:20:14.491Z,-4.60
2022-11-19T03:25:25.316Z,-4.40
2022-11-19T03:30:32.225Z,-4.40
2022-11-19T03:35:55.649Z,-4.30
2022-11-19T03:41:03.829Z,-4.20
2022-11-19T03:46:12.057Z,-4.10
2022-11-19T03:51:23.036Z,-4.10
2022-11-19T03:56:30.779Z,-4.10
2022-11-19T04:01:36.845Z,-4.10
2022-11-19T04:06:42.077Z,-4.10
2022-11-19T04:16:51.289Z,-4.10
2022-11-19T04:21:56.484Z,-4.30
2022-11-19T04:27:01.956Z,-4.30
2022-11-19T04:32:07.151Z,-4.20
2022-11-19T04:37:12.337Z,-4.10
2022-11-19T04:42:17.609Z,-4.00
2022-11-19T04:47:22.815Z,-3.90
2022-11-19T04:52:28.029Z,-3.90
2022-11-19T04:57:33.240Z,-3.70
2022-11-19T05:02:38.385Z,-3.70
2022-11-19T05:07:43.576Z,-3.70
2022-11-19T05:12:48.860Z,-3.80
2022-11-19T05:17:54.077Z,-4.00
2022-11-19T05:22:59.766Z,-4.10
2022-11-19T05:28:05.132Z,-4.20
2022-11-19T05:33:10.426Z,-4.10
2022-11-19T05:38:16.151Z,-4.00
2022-11-19T05:43:21.326Z,-4.00
2022-11-19T05:48:26.522Z,-4.00
2022-11-19T05:53:31.703Z,-4.00
2022-11-19T05:58:36.981Z,-4.00
2022-11-19T06:03:42.349Z,-4.00
2022-11-19T06:08:47.511Z,-4.10
2022-11-19T06:13:52.746Z,-4.10
2022-11-19T06:18:57.853Z,-4.20
2022-11-19T06:24:03.130Z,-4.10
2022-11-19T06:29:08.693Z,-4.10
2022-11-19T06:34:14.450Z,-4.00
2022-11-19T06:39:20.279Z,-3.90
2022-11-19T06:44:25.940Z,-3.90
2022-11-19T06:49:30.988Z,-3.80
2022-11-19T06:54:40.253Z,-3.70
2022-11-19T06:59:42.871Z,-3.60
2022-11-19T07:04:47.922Z,-3.60
2022-11-19T07:09:53.049Z,-3.50
2022-11-19T07:15:03.728Z,-3.50
2022-11-19T07:20:06.615Z,-3.30
2022-11-19T07:25:15.761Z,-3.10
2022-11-19T07:30:21.133Z,-3.10
2022-11-19T07:35:26.413Z,-3.00
2022-11-19T07:40:33.593Z,-2.90
2022-11-19T07:45:39.003Z,-2.70
2022-11-19T07:50:44.341Z,-2.50
2022-11-19T07:55:49.526Z,-2.30
2022-11-19T08:00:54.822Z,-2.30
2022-11-19T08:05:59.991Z,-2.40
2022-11-19T08:11:09.112Z,-2.40
2022-11-19T08:16:35.236Z,-2.30
2022-11-19T08:21:55.206Z,-2.20
2022-11-19T08:27:00.519Z,-2.10
2022-11-19T08:32:35.248Z,-2.10
2022-11-19T08:37:52.322Z,-2.10
2022-11-19T08:43:01.336Z,-2.00
2022-11-19T08:48:13.823Z,-1.90
2022-11-19T08:53:46.346Z,-1.90
2022-11-19T08:58:54.064Z,-1.80
2022-11-19T09:04:00.100Z,-1.70
2022-11-19T09:09:06.089Z,-1.70
2022-11-19T09:14:11.585Z,-1.60
2022-11-19T09:19:17.036Z,-1.60
2022-11-19T09:24:22.762Z,-1.70
2022-11-19T09:29:28.801Z,-1.60
2022-11-19T09:34:35.443Z,-1.50
2022-11-19T09:39:40.769Z,-1.30
2022-11-19T09:44:51.900Z,-1.30
2022-11-19T09:50:18.215Z,-1.30
2022-11-19T09:55:45.575Z,-1.30
2022-11-19T10:00:51.433Z,-1.10
2022-11-19T10:06:11.730Z,-1.00
2022-11-19T10:11:40.833Z,-1.00
2022-11-19T10:17:05.731Z,-1.00
2022-11-19T10:22:30.643Z,-1.00
2022-11-19T10:27:55.865Z,-1.00
2022-11-19T10:33:27.556Z,-1.00
2022-11-19T10:38:41.188Z,-1.10
2022-11-19T10:43:53.025Z,-1.10
2022-11-19T10:49:00.777Z,-0.90
2022-11-19T10:54:08.895Z,-0.90
2022-11-19T10:59:17.566Z,-0.80
2022-11-19T11:04:26.159Z,-0.90
2022-11-19T11:09:39.996Z,-0.90
2022-11-19T11:14:54.611Z,-0.90
2022-11-19T11:20:08.341Z,-0.90
2022-11-19T11:25:25.635Z,-1.00
2022-11-19T11:30:30.899Z,-0.90
2022-11-19T11:35:39.100Z,-0.90
2022-11-19T11:40:47.333Z,-1.00
2022-11-19T11:45:58.284Z,-1.10
2022-11-19T11:51:03.716Z,-1.20
2022-11-19T11:56:10.582Z,-1.30
2022-11-19T12:01:20.632Z,-1.40
2022-11-19T12:06:28.786Z,-1.40
2022-11-19T12:11:54.927Z,-1.50
2022-11-19T12:17:21.317Z,-1.60
2022-11-19T12:22:45.603Z,-1.60
2022-11-19T12:27:53.977Z,-1.70
2022-11-19T12:33:23.580Z,-1.60
2022-11-19T12:38:53.573Z,-1.70
2022-11-19T12:44:01.387Z,-1.70
2022-11-19T12:49:35.361Z,-1.70
2022-11-19T12:55:05.093Z,-1.70
2022-11-19T13:00:13.539Z,-1.70
2022-11-19T13:05:24.758Z,-1.60
2022-11-19T13:10:42.236Z,-1.60
2022-11-19T13:15:53.358Z,-1.70
2022-11-19T13:21:08.147Z,-1.60
2022-11-19T13:26:19.252Z,-1.60
2022-11-19T13:31:36.544Z,-1.70
2022-11-19T13:37:04.066Z,-1.60
2022-11-19T13:42:29.114Z,-1.60
2022-11-19T13:47:40.262Z,-1.60
2022-11-19T13:52:57.561Z,-1.70
2022-11-19T13:58:28.905Z,-1.70
2022-11-19T14:03:43.800Z,-1.80
2022-11-19T14:08:56.777Z,-1.80
2022-11-19T14:14:51.050Z,-1.80
2022-11-19T14:20:18.786Z,-1.80
2022-11-19T14:26:03.960Z,-1.80
2022-11-19T14:31:15.993Z,-1.90
2022-11-19T14:36:40.156Z,-2.00
2022-11-19T14:42:22.116Z,-2.00
2022-11-19T14:47:34.994Z,-2.00
2022-11-19T14:52:58.994Z,-2.00
2022-11-19T14:58:20.705Z,-2.00
2022-11-19T15:03:31.340Z,-2.00
2022-11-19T15:08:49.734Z,-2.00
2022-11-19T15:14:38.306Z,-1.90
2022-11-19T15:19:45.810Z,-1.90
2022-11-19T15:25:34.682Z,-1.90
2022-11-19T15:30:52.073Z,-1.90
2022-11-19T15:36:20.928Z,-1.90
2022-11-19T15:41:29.343Z,-1.80
2022-11-19T15:46:38.997Z,-1.80
2022-11-19T15:52:02.376Z,-1.80
2022-11-19T15:57:26.299Z,-1.80
2022-11-19T16:02:35.078Z,-1.70
2022-11-19T16:07:41.267Z,-1.70
2022-11-19T16:13:13.513Z,-1.70
2022-11-19T16:18:20.626Z,-1.60
2022-11-19T16:23:27.645Z,-1.60
2022-11-19T16:28:33.180Z,-1.50
2022-11-19T16:33:40.109Z,-1.50
2022-11-19T16:38:48.538Z,-1.50
2022-11-19T16:43:54.121Z,-1.50
2022-11-19T16:49:02.624Z,-1.50
2022-11-19T16:54:15.047Z,-1.50
2022-11-19T16:59:26.523Z,-1.50
2022-11-19T17:04:35.732Z,-1.50
2022-11-19T17:09:55.382Z,-1.50
2022-11-19T17:15:21.346Z,-1.50
2022-11-19T17:20:33.238Z,-1.50
2022-11-19T17:25:41.708Z,-1.50
2022-11-19T17:30:49.871Z,-1.50
2022-11-19T17:35:55.367Z,-1.50
2022-11-19T17:41:03.185Z,-1.50
2022-11-19T17:46:10.116Z,-1.50
2022-11-19T17:51:22.335Z,-1.40
2022-11-19T17:56:30.187Z,-1.40
2022-11-19T18:01:36.796Z,-1.40
2022-11-19T18:06:44.114Z,-1.40
2022-11-19T18:11:52.523Z,-1.30
2022-11-19T18:16:57.913Z,-1.40
2022-11-19T18:22:03.213Z,-1.40
2022-11-19T18:27:08.429Z,-1.40
2022-11-19T18:32:17.349Z,-1.40
2022-11-19T18:43:17.239Z,-1.30
2022-11-19T18:48:31.821Z,-1.30
2022-11-19T18:53:45.482Z,-1.40
2022-11-19T18:59:04.468Z,-1.30
2022-11-19T19:04:14.596Z,-1.30
2022-11-19T19:09:22.964Z,-1.30
2022-11-19T19:14:33.729Z,-1.30
2022-11-19T19:19:46.145Z,-1.30
2022-11-19T19:24:58.687Z,-1.30
2022-11-19T19:30:07.318Z,-1.30
2022-11-19T19:40:55.797Z,-1.30
2022-11-19T19:46:09.898Z,-1.30
2022-11-19T19:51:19.394Z,-1.30
2022-11-19T19:56:33.066Z,-1.30
2022-11-19T20:01:38.760Z,-1.30
2022-11-19T20:06:48.718Z,-1.30
2022-11-19T20:11:54.874Z,-1.20
2022-11-19T20:17:00.654Z,-1.20
2022-11-19T20:22:06.060Z,-1.30
2022-11-19T20:27:11.530Z,-1.30
2022-11-19T20:32:16.974Z,-1.20
2022-11-19T20:37:22.650Z,-1.20
2022-11-19T20:42:46.341Z,-1.30
2022-11-19T20:47:52.003Z,-1.20
2022-11-19T20:52:57.659Z,-1.20
2022-11-19T20:58:03.351Z,-1.20
2022-11-19T21:03:10.580Z,-1.10
2022-11-19T21:08:16.537Z,-1.10
2022-11-19T21:13:22.333Z,-1.10
2022-11-19T21:18:31.210Z,-1.10
2022-11-19T21:23:36.593Z,-1.10
2022-11-19T21:28:42.104Z,-1.10
2022-11-19T21:33:47.628Z,-1.10
2022-11-19T21:38:53.029Z,-1.00
2022-11-19T21:43:58.428Z,-1.00
2022-11-19T21:49:03.804Z,-1.10
2022-11-19T21:54:09.339Z,-1.10
2022-11-19T21:59:15.070Z,-1.00
2022-11-19T22:04:20.376Z,-1.00
2022-11-19T22:09:26.881Z,-1.00
2022-11-19T22:14:32.264Z,-0.90
2022-11-19T22:19:37.687Z,-1.00
2022-11-19T22:24:43.003Z,-1.00
2022-11-19T22:29:48.382Z,-1.00
2022-11-19T22:34:53.716Z,-1.00
2022-11-19T22:39:59.085Z,-1.00
2022-11-19T22:45:04.619Z,-1.10
2022-11-19T22:50:09.950Z,-1.10
2022-11-19T22:55:15.347Z,-1.10
2022-11-19T23:00:38.293Z,-1.10
2022-11-19T23:05:49.265Z,-1.10
2022-11-19T23:11:02.495Z,-1.10
2022-11-19T23:16:20.468Z,-1.10
2022-11-19T23:21:28.475Z,-1.10
2022-11-19T23:26:34.848Z,-1.10
2022-11-19T23:31:41.216Z,-1.10
2022-11-19T23:36:46.595Z,-1.10
2022-11-19T23:41:51.895Z,-1.00
2022-11-19T23:46:57.197Z,-1.10
2022-11-19T23:52:02.723Z,-1.10
2022-11-19T23:57:10.035Z,-1.10
